createdAt,value
2022-10-26T00:02:08.970Z,71.10
2022-10-26T00:04:36.064Z,71.03
2022-10-26T00:07:03.319Z,70.96
2022-10-26T00:09:30.256Z,71.01
2022-10-26T00:11:57.342Z,70.92
2022-10-26T00:14:24.454Z,71.00
2022-10-26T00:16:51.440Z,71.05
2022-10-26T00:19:18.850Z,71.06
2022-10-26T00:21:45.833Z,71.05
2022-10-26T00:24:12.963Z,71.04
2022-10-26T00:26:40.226Z,71.09
2022-10-26T00:29:07.450Z,71.23
2022-10-26T00:31:34.503Z,71.37
2022-10-26T00:34:01.551Z,71.54
2022-10-26T00:36:29.003Z,71.78
2022-10-26T00:38:56.866Z,71.89
2022-10-26T00:41:26.003Z,72.03
2022-10-26T00:43:53.627Z,72.09
2022-10-26T00:46:30.808Z,72.02
2022-10-26T00:49:01.729Z,71.84
2022-10-26T00:51:50.690Z,71.85
2022-10-26T00:54:21.548Z,71.95
2022-10-26T00:56:50.047Z,72.16
2022-10-26T00:59:17.378Z,72.17
2022-10-26T01:01:45.103Z,72.12
2022-10-26T01:04:12.802Z,72.19
2022-10-26T01:06:39.870Z,72.34
2022-10-26T01:09:07.000Z,72.37
2022-10-26T01:11:33.951Z,72.56
2022-10-26T01:14:01.708Z,72.65
2022-10-26T01:16:42.787Z,72.61
2022-10-26T01:19:32.783Z,72.61
2022-10-26T01:22:06.083Z,72.61
2022-10-26T01:24:44.578Z,72.76
2022-10-26T01:27:37.330Z,72.81
2022-10-26T01:30:15.540Z,72.90
2022-10-26T01:32:54.788Z,72.86
2022-10-26T01:35:34.824Z,72.72
2022-10-26T01:38:10.575Z,72.80
2022-10-26T01:40:42.027Z,72.78
2022-10-26T01:43:09.890Z,72.76
2022-10-26T01:45:38.276Z,72.69
2022-10-26T01:48:05.848Z,72.51
2022-10-26T01:50:32.875Z,72.47
2022-10-26T01:52:59.949Z,72.39
2022-10-26T01:55:39.265Z,72.31
2022-10-26T01:58:30.273Z,72.16
2022-10-26T02:01:36.503Z,72.00
2022-10-26T02:04:11.950Z,71.80
2022-10-26T02:06:45.069Z,71.55
2022-10-26T02:09:15.183Z,71.45
2022-10-26T02:11:43.906Z,71.55
2022-10-26T02:14:23.207Z,71.59
2022-10-26T02:16:54.557Z,71.63
2022-10-26T02:19:50.992Z,71.54
2022-10-26T02:22:48.831Z,71.45
2022-10-26T02:25:29.974Z,71.46
2022-10-26T02:28:01.938Z,71.65
2022-10-26T02:30:29.184Z,71.87
2022-10-26T02:32:57.020Z,72.06
2022-10-26T02:35:27.854Z,72.16
2022-10-26T02:37:54.898Z,72.13
2022-10-26T02:40:24.780Z,72.29
2022-10-26T02:42:52.738Z,72.40
2022-10-26T02:45:23.197Z,72.58
2022-10-26T02:47:51.065Z,72.81
2022-10-26T02:50:20.075Z,72.92
2022-10-26T02:52:55.008Z,73.04
2022-10-26T02:55:24.507Z,73.16
2022-10-26T02:57:54.522Z,73.38
2022-10-26T03:00:21.514Z,73.60
2022-10-26T03:02:53.583Z,73.88
2022-10-26T03:05:28.672Z,74.05
2022-10-26T03:07:56.230Z,74.29
2022-10-26T03:10:23.195Z,74.54
2022-10-26T03:12:50.585Z,74.73
2022-10-26T03:15:18.021Z,74.90
2022-10-26T03:17:45.048Z,75.00
2022-10-26T03:20:11.990Z,74.93
2022-10-26T03:22:39.127Z,74.91
2022-10-26T03:27:39.330Z,74.92
2022-10-26T03:30:07.207Z,75.06
2022-10-26T03:32:34.281Z,75.25
2022-10-26T03:35:01.635Z,75.16
2022-10-26T03:37:28.590Z,75.25
2022-10-26T03:39:55.600Z,75.25
2022-10-26T03:42:22.685Z,75.38
2022-10-26T03:44:49.620Z,75.39
2022-10-26T03:47:16.665Z,75.57
2022-10-26T03:49:43.913Z,75.59
2022-10-26T03:52:10.960Z,75.58
2022-10-26T03:54:37.905Z,75.63
2022-10-26T03:57:04.849Z,75.74
2022-10-26T03:59:31.698Z,75.84
2022-10-26T04:01:58.723Z,75.97
2022-10-26T04:04:25.982Z,76.05
2022-10-26T04:06:53.243Z,76.03
2022-10-26T04:09:20.317Z,76.19
2022-10-26T04:11:47.338Z,76.38
2022-10-26T04:14:14.814Z,76.67
2022-10-26T04:16:41.739Z,76.85
2022-10-26T04:19:08.786Z,76.92
2022-10-26T04:21:35.836Z,76.89
2022-10-26T04:24:02.788Z,76.88
2022-10-26T04:26:29.927Z,77.09
2022-10-26T04:28:56.990Z,77.18
2022-10-26T04:31:24.020Z,77.29
2022-10-26T04:33:50.975Z,77.25
2022-10-26T04:36:18.014Z,77.30
2022-10-26T04:38:44.966Z,77.40
2022-10-26T04:41:14.501Z,77.62
2022-10-26T04:43:41.718Z,77.54
2022-10-26T04:46:10.365Z,77.40
2022-10-26T04:48:38.370Z,77.41
2022-10-26T04:51:05.376Z,77.46
2022-10-26T04:53:32.463Z,77.50
2022-10-26T04:56:00.331Z,77.47
2022-10-26T04:58:28.747Z,77.27
2022-10-26T05:00:55.825Z,77.35
2022-10-26T05:03:30.339Z,77.39
2022-10-26T05:06:00.889Z,77.39
2022-10-26T05:08:32.872Z,77.52
2022-10-26T05:14:48.129Z,77.19
2022-10-26T05:17:15.713Z,77.17
2022-10-26T05:19:42.754Z,77.04
2022-10-26T05:22:10.516Z,76.88
2022-10-26T05:24:37.564Z,76.75
2022-10-26T05:27:04.508Z,76.42
2022-10-26T05:29:31.489Z,76.10
2022-10-26T05:31:58.511Z,76.25
2022-10-26T05:34:25.484Z,76.43
2022-10-26T05:36:53.823Z,76.68
2022-10-26T05:39:22.222Z,76.61
2022-10-26T05:41:49.251Z,76.84
2022-10-26T05:44:16.303Z,77.08
2022-10-26T05:46:45.777Z,77.31
2022-10-26T05:49:12.858Z,77.63
2022-10-26T05:51:40.138Z,77.80
2022-10-26T05:54:10.304Z,78.00
2022-10-26T05:56:40.231Z,78.26
2022-10-26T05:59:15.233Z,78.31
2022-10-26T06:02:01.802Z,78.26
2022-10-26T06:04:44.502Z,78.03
2022-10-26T06:07:13.279Z,77.57
2022-10-26T06:09:40.880Z,77.30
2022-10-26T06:12:09.029Z,77.42
2022-10-26T06:14:36.601Z,77.38
2022-10-26T06:17:09.759Z,77.14
2022-10-26T06:19:41.004Z,76.81
2022-10-26T06:22:41.945Z,76.55
2022-10-26T06:25:36.744Z,75.96
2022-10-26T06:31:03.916Z,74.15
2022-10-26T06:33:31.312Z,73.16
2022-10-26T06:36:04.869Z,72.39
2022-10-26T06:38:31.814Z,71.94
2022-10-26T06:40:59.198Z,71.72
2022-10-26T06:43:27.613Z,71.46
2022-10-26T06:46:19.784Z,71.32
2022-10-26T06:49:11.508Z,71.24
2022-10-26T06:51:46.648Z,71.54
2022-10-26T06:54:16.152Z,71.47
2022-10-26T06:56:43.197Z,70.94
2022-10-26T06:59:15.570Z,70.85
2022-10-26T07:01:42.838Z,70.16
2022-10-26T07:04:10.073Z,69.73
2022-10-26T07:06:39.252Z,69.11
2022-10-26T07:09:09.389Z,67.94
2022-10-26T07:11:36.436Z,66.77
2022-10-26T07:14:03.484Z,65.61
2022-10-26T07:16:30.641Z,64.98
2022-10-26T07:18:57.683Z,64.35
2022-10-26T07:21:24.625Z,64.27
2022-10-26T07:23:52.835Z,64.15
2022-10-26T07:26:20.052Z,63.88
2022-10-26T07:28:49.821Z,64.03
2022-10-26T07:31:16.922Z,64.55
2022-10-26T07:33:45.616Z,64.61
2022-10-26T07:36:12.851Z,65.26
2022-10-26T07:38:40.104Z,65.71
2022-10-26T07:41:07.312Z,65.59
2022-10-26T07:43:53.250Z,65.22
2022-10-26T07:46:20.294Z,64.86
2022-10-26T07:48:47.238Z,63.56
2022-10-26T07:51:14.286Z,62.34
2022-10-26T07:53:41.843Z,61.07
2022-10-26T07:56:08.901Z,59.97
2022-10-26T07:58:36.562Z,58.46
2022-10-26T08:01:13.315Z,56.99
2022-10-26T08:03:40.803Z,55.83
2022-10-26T08:06:09.668Z,54.53
2022-10-26T08:08:37.025Z,53.62
2022-10-26T08:11:04.003Z,53.23
2022-10-26T08:13:33.743Z,52.45
2022-10-26T08:16:03.327Z,52.00
2022-10-26T08:18:30.639Z,51.23
2022-10-26T08:21:10.687Z,50.38
2022-10-26T08:23:40.096Z,49.74
2022-10-26T08:26:07.203Z,48.48
2022-10-26T08:28:37.683Z,47.87
2022-10-26T08:31:04.819Z,47.74
2022-10-26T08:33:31.808Z,47.36
2022-10-26T08:36:00.248Z,46.58
2022-10-26T08:38:27.844Z,45.52
2022-10-26T08:40:54.859Z,44.83
2022-10-26T08:43:39.603Z,44.22
2022-10-26T08:46:12.089Z,43.67
2022-10-26T08:48:44.682Z,43.16
2022-10-26T08:51:21.342Z,43.04
2022-10-26T08:53:52.967Z,42.86
2022-10-26T08:56:27.339Z,42.58
2022-10-26T08:58:58.458Z,42.14
2022-10-26T09:01:25.619Z,41.90
2022-10-26T09:03:52.865Z,41.30
2022-10-26T09:06:21.413Z,40.28
2022-10-26T09:09:18.420Z,40.12
2022-10-26T09:12:18.103Z,39.59
2022-10-26T09:15:04.093Z,38.95
2022-10-26T09:17:48.477Z,39.16
2022-10-26T09:20:15.598Z,38.82
2022-10-26T09:23:06.200Z,38.90
2022-10-26T09:25:43.942Z,38.96
2022-10-26T09:28:16.674Z,39.21
2022-10-26T09:30:47.565Z,39.80
2022-10-26T09:33:17.745Z,39.75
2022-10-26T09:36:04.338Z,39.74
2022-10-26T09:38:37.325Z,40.15
2022-10-26T09:41:33.245Z,40.57
2022-10-26T09:44:21.899Z,41.25
2022-10-26T09:47:00.313Z,41.49
2022-10-26T09:49:33.611Z,42.25
2022-10-26T09:52:03.385Z,42.84
2022-10-26T09:54:30.568Z,43.25
2022-10-26T09:56:59.164Z,43.41
2022-10-26T09:59:26.607Z,42.84
2022-10-26T10:01:53.837Z,42.71
2022-10-26T10:04:26.257Z,42.78
2022-10-26T10:07:14.403Z,42.92
2022-10-26T10:09:41.422Z,43.28
2022-10-26T10:12:20.759Z,43.44
2022-10-26T10:14:57.736Z,44.17
2022-10-26T10:17:27.754Z,43.73
2022-10-26T10:19:54.906Z,43.48
2022-10-26T10:22:25.440Z,43.37
2022-10-26T10:24:58.112Z,43.09
2022-10-26T10:27:25.670Z,43.09
2022-10-26T10:29:59.701Z,43.50
2022-10-26T10:32:35.539Z,43.57
2022-10-26T10:35:23.940Z,43.59
2022-10-26T10:37:51.133Z,43.53
2022-10-26T10:40:22.484Z,43.53
2022-10-26T10:42:50.808Z,43.39
2022-10-26T10:45:23.031Z,43.56
2022-10-26T10:48:12.612Z,43.54
2022-10-26T10:50:55.529Z,43.72
2022-10-26T10:53:26.680Z,44.19
2022-10-26T10:56:10.732Z,44.24
2022-10-26T10:58:48.851Z,44.36
2022-10-26T11:01:23.259Z,44.66
2022-10-26T11:04:05.989Z,44.92
2022-10-26T11:06:33.619Z,44.77
2022-10-26T11:09:03.428Z,44.78
2022-10-26T11:11:45.554Z,44.84
2022-10-26T11:14:33.567Z,44.34
2022-10-26T11:17:30.614Z,44.39
2022-10-26T11:20:16.095Z,44.67
2022-10-26T11:23:10.386Z,44.94
2022-10-26T11:25:42.349Z,45.39
2022-10-26T11:28:12.466Z,45.28
2022-10-26T11:30:44.310Z,45.28
2022-10-26T11:33:22.020Z,45.85
2022-10-26T11:35:58.903Z,46.42
2022-10-26T11:38:45.983Z,46.74
2022-10-26T11:41:49.856Z,46.97
2022-10-26T11:44:28.951Z,46.66
2022-10-26T11:46:57.672Z,46.40
2022-10-26T11:49:45.575Z,46.48
2022-10-26T11:52:20.257Z,46.71
2022-10-26T11:57:26.481Z,46.77
2022-10-26T11:59:55.370Z,46.65
2022-10-26T12:02:23.857Z,46.25
2022-10-26T12:05:19.586Z,45.53
2022-10-26T12:08:08.587Z,44.50
2022-10-26T12:10:38.449Z,43.81
2022-10-26T12:13:14.525Z,44.15
2022-10-26T12:16:03.523Z,44.27
2022-10-26T12:18:55.909Z,44.43
2022-10-26T12:21:29.038Z,45.41
2022-10-26T12:24:00.139Z,45.72
2022-10-26T12:26:27.187Z,45.72
2022-10-26T12:29:23.007Z,46.07
2022-10-26T12:31:50.157Z,45.26
2022-10-26T12:34:30.018Z,44.97
2022-10-26T12:36:56.995Z,44.56
2022-10-26T12:39:33.829Z,43.90
2022-10-26T12:42:09.916Z,43.12
2022-10-26T12:44:42.872Z,42.72
2022-10-26T12:47:10.440Z,42.35
2022-10-26T12:50:09.577Z,42.48
2022-10-26T12:52:49.064Z,42.90
2022-10-26T12:55:38.541Z,43.55
2022-10-26T12:58:24.532Z,43.43
2022-10-26T13:01:16.648Z,43.72
2022-10-26T13:04:07.062Z,44.12
2022-10-26T13:07:13.251Z,44.56
2022-10-26T13:09:40.280Z,45.22
2022-10-26T13:12:07.279Z,45.97
2022-10-26T13:14:43.842Z,46.67
2022-10-26T13:17:23.990Z,47.34
2022-10-26T13:19:51.092Z,47.99
2022-10-26T13:22:21.420Z,48.25
2022-10-26T13:24:51.666Z,48.66
2022-10-26T13:27:18.791Z,48.88
2022-10-26T13:30:06.065Z,49.14
2022-10-26T13:32:38.102Z,49.00
2022-10-26T13:35:05.427Z,49.34
2022-10-26T13:37:33.673Z,49.54
2022-10-26T13:40:01.161Z,49.77
2022-10-26T13:45:07.046Z,50.73
2022-10-26T13:47:53.049Z,50.96
2022-10-26T13:50:24.737Z,50.69
2022-10-26T13:53:07.393Z,51.07
2022-10-26T13:55:50.826Z,50.88
2022-10-26T13:58:23.402Z,50.82
2022-10-26T14:01:12.033Z,50.87
2022-10-26T14:03:39.511Z,51.25
2022-10-26T14:06:28.404Z,51.85
2022-10-26T14:09:02.619Z,52.45
2022-10-26T14:12:16.123Z,53.07
2022-10-26T14:14:43.988Z,53.42
2022-10-26T14:17:24.244Z,53.53
2022-10-26T14:19:51.438Z,54.06
2022-10-26T14:22:23.487Z,54.53
2022-10-26T14:27:28.477Z,54.48
2022-10-26T14:30:20.995Z,54.67
2022-10-26T14:32:42.783Z,55.17
2022-10-26T14:35:14.133Z,55.66
2022-10-26T14:37:57.577Z,56.11
2022-10-26T14:40:27.318Z,56.37
2022-10-26T14:42:56.077Z,56.90
2022-10-26T14:45:47.736Z,57.50
2022-10-26T14:48:25.782Z,57.89
2022-10-26T14:51:17.637Z,57.83
2022-10-26T14:53:52.875Z,58.17
2022-10-26T14:56:25.320Z,58.57
2022-10-26T14:58:52.375Z,58.71
2022-10-26T15:01:22.708Z,59.09
2022-10-26T15:03:53.710Z,59.00
2022-10-26T15:06:30.091Z,59.12
2022-10-26T15:13:04.561Z,59.61
2022-10-26T15:18:30.472Z,60.17
2022-10-26T15:20:57.619Z,60.63
2022-10-26T15:23:24.939Z,61.03
2022-10-26T15:25:59.884Z,61.28
2022-10-26T15:28:39.105Z,61.74
2022-10-26T15:31:06.669Z,62.10
2022-10-26T15:33:34.226Z,62.30
2022-10-26T15:36:26.590Z,62.58
2022-10-26T15:38:54.121Z,63.27
2022-10-26T15:41:25.979Z,63.73
2022-10-26T15:43:56.918Z,64.16
2022-10-26T15:47:08.916Z,64.39
2022-10-26T15:49:36.219Z,64.89
2022-10-26T15:54:30.320Z,64.89
2022-10-26T15:56:57.537Z,64.86
2022-10-26T15:59:24.604Z,65.01
2022-10-26T16:01:53.124Z,65.25
2022-10-26T16:04:20.341Z,65.43
2022-10-26T16:06:47.694Z,65.70
2022-10-26T16:09:18.478Z,65.88
2022-10-26T16:11:45.881Z,66.10
2022-10-26T16:14:13.259Z,66.41
2022-10-26T16:16:41.646Z,66.72
2022-10-26T16:21:56.979Z,67.08
2022-10-26T16:24:24.053Z,67.34
2022-10-26T16:26:50.999Z,67.51
2022-10-26T16:29:18.147Z,67.74
2022-10-26T16:31:46.151Z,67.81
2022-10-26T16:34:13.472Z,67.85
2022-10-26T16:36:40.742Z,67.82
2022-10-26T16:39:07.889Z,67.89
2022-10-26T16:41:35.267Z,68.06
2022-10-26T16:44:02.683Z,68.17
2022-10-26T16:46:29.730Z,68.32
2022-10-26T16:48:56.811Z,68.43
2022-10-26T16:51:26.557Z,68.48
2022-10-26T16:53:55.914Z,68.62
2022-10-26T16:56:24.886Z,68.51
2022-10-26T16:58:51.933Z,68.54
2022-10-26T17:01:22.764Z,68.51
2022-10-26T17:03:50.831Z,68.58
2022-10-26T17:06:20.443Z,68.67
2022-10-26T17:08:47.706Z,68.56
2022-10-26T17:11:16.923Z,68.51
2022-10-26T17:13:46.910Z,68.59
2022-10-26T17:16:16.222Z,68.62
2022-10-26T17:18:43.669Z,68.57
2022-10-26T17:21:12.046Z,68.66
2022-10-26T17:23:41.483Z,68.88
2022-10-26T17:26:12.498Z,68.88
2022-10-26T17:28:42.199Z,68.88
2022-10-26T17:31:13.145Z,68.89
2022-10-26T17:33:42.229Z,68.81
2022-10-26T17:36:10.606Z,68.90
2022-10-26T17:38:42.776Z,68.92
2022-10-26T17:41:11.364Z,68.95
2022-10-26T17:43:39.330Z,69.07
2022-10-26T17:46:08.376Z,69.11
2022-10-26T17:48:35.374Z,69.07
2022-10-26T17:51:03.283Z,69.15
2022-10-26T17:53:30.517Z,69.08
2022-10-26T17:56:04.804Z,69.36
2022-10-26T17:58:35.121Z,69.46
2022-10-26T18:01:10.219Z,69.60
2022-10-26T18:03:38.335Z,69.52
2022-10-26T18:06:07.812Z,69.57
2022-10-26T18:08:35.792Z,69.65
2022-10-26T18:11:02.859Z,69.63
2022-10-26T18:13:32.196Z,69.77
2022-10-26T18:16:06.277Z,69.97
2022-10-26T18:18:33.439Z,69.93
2022-10-26T18:21:05.103Z,69.83
2022-10-26T18:23:32.323Z,69.80
2022-10-26T18:26:16.004Z,69.76
2022-10-26T18:28:43.316Z,69.85
2022-10-26T18:31:13.278Z,70.01
2022-10-26T18:33:40.246Z,70.17
2022-10-26T18:36:15.008Z,70.18
2022-10-26T18:38:42.054Z,70.19
2022-10-26T18:41:10.966Z,70.15
2022-10-26T18:43:51.916Z,70.32
2022-10-26T18:46:24.340Z,70.38
2022-10-26T18:48:57.233Z,70.60
2022-10-26T18:51:28.957Z,70.58
2022-10-26T18:53:56.343Z,70.41
2022-10-26T18:56:24.475Z,70.33
2022-10-26T18:58:55.703Z,70.38
2022-10-26T19:01:27.732Z,70.23
2022-10-26T19:03:59.319Z,70.15
2022-10-26T19:06:28.220Z,70.23
2022-10-26T19:08:55.565Z,70.41
2022-10-26T19:11:23.454Z,70.52
2022-10-26T19:13:51.610Z,70.42
2022-10-26T19:16:40.253Z,70.51
2022-10-26T19:19:06.493Z,70.68
2022-10-26T19:21:33.536Z,70.83
2022-10-26T19:24:01.493Z,71.07
2022-10-26T19:26:33.404Z,71.31
2022-10-26T19:29:04.343Z,71.39
2022-10-26T19:31:34.218Z,71.43
2022-10-26T19:34:02.080Z,71.48
2022-10-26T19:36:29.540Z,71.50
2022-10-26T19:38:56.526Z,71.67
2022-10-26T19:41:24.146Z,71.94
2022-10-26T19:43:51.339Z,72.01
2022-10-26T19:46:21.321Z,71.88
2022-10-26T19:48:51.837Z,71.96
2022-10-26T19:51:18.987Z,71.97
2022-10-26T19:53:46.033Z,71.95
2022-10-26T19:56:13.596Z,71.90
2022-10-26T19:58:41.458Z,72.03
2022-10-26T20:01:08.972Z,71.96
2022-10-26T20:03:36.066Z,71.81
2022-10-26T20:06:08.633Z,71.70
2022-10-26T20:08:36.405Z,71.66
2022-10-26T20:11:03.766Z,71.78
2022-10-26T20:13:30.910Z,71.79
2022-10-26T20:15:58.057Z,72.13
2022-10-26T20:18:27.765Z,72.34
2022-10-26T20:20:54.716Z,72.54
2022-10-26T20:23:21.967Z,72.53
2022-10-26T20:25:50.302Z,72.57
2022-10-26T20:28:18.109Z,72.56
2022-10-26T20:30:45.787Z,72.69
2022-10-26T20:33:13.123Z,72.74
2022-10-26T20:35:40.295Z,72.76
2022-10-26T20:38:08.009Z,72.67
2022-10-26T20:40:35.804Z,72.62
2022-10-26T20:43:03.561Z,72.83
2022-10-26T20:45:33.786Z,72.79
2022-10-26T20:48:01.574Z,73.05
2022-10-26T20:50:29.928Z,73.19
2022-10-26T20:53:18.991Z,73.19
2022-10-26T20:55:57.331Z,73.04
2022-10-26T20:58:53.535Z,73.03
2022-10-26T21:01:26.027Z,73.05
2022-10-26T21:03:53.874Z,73.05
2022-10-26T21:06:21.256Z,73.24
2022-10-26T21:08:49.402Z,73.40
2022-10-26T21:11:17.295Z,73.48
2022-10-26T21:13:45.037Z,73.40
2022-10-26T21:16:13.904Z,73.35
2022-10-26T21:18:41.078Z,73.40
2022-10-26T21:21:08.327Z,73.62
2022-10-26T21:23:39.385Z,73.68
2022-10-26T21:26:07.233Z,73.85
2022-10-26T21:28:38.688Z,73.61
2022-10-26T21:31:07.163Z,73.39
2022-10-26T21:33:34.424Z,73.45
2022-10-26T21:36:01.876Z,73.53
2022-10-26T21:38:29.283Z,73.42
2022-10-26T21:41:10.336Z,73.51
2022-10-26T21:43:38.373Z,73.51
2022-10-26T21:46:05.522Z,73.43
2022-10-26T21:48:33.183Z,73.31
2022-10-26T21:51:07.306Z,73.14
2022-10-26T21:53:34.448Z,73.25
2022-10-26T21:56:02.034Z,73.34
2022-10-26T21:58:29.979Z,73.33
2022-10-26T22:01:17.496Z,73.38
2022-10-26T22:03:44.758Z,73.40
2022-10-26T22:06:13.481Z,73.59
2022-10-26T22:08:40.972Z,73.74
2022-10-26T22:11:15.362Z,73.85
2022-10-26T22:13:44.003Z,73.89
2022-10-26T22:16:13.121Z,73.94
2022-10-26T22:18:42.276Z,73.97
2022-10-26T22:21:09.304Z,74.00
2022-10-26T22:23:37.552Z,73.87
2022-10-26T22:26:15.006Z,73.78
2022-10-26T22:28:43.065Z,73.67
2022-10-26T22:31:12.955Z,73.64
2022-10-26T22:33:40.372Z,73.62
2022-10-26T22:36:14.680Z,73.88
2022-10-26T22:38:41.910Z,73.90
2022-10-26T22:41:09.009Z,73.81
2022-10-26T22:43:35.983Z,73.49
2022-10-26T22:46:07.593Z,73.53
2022-10-26T22:48:34.692Z,73.47
2022-10-26T22:51:08.568Z,73.46
2022-10-26T22:53:35.514Z,73.52
2022-10-26T22:56:02.715Z,73.37
2022-10-26T22:58:29.749Z,73.33
2022-10-26T23:01:07.842Z,73.30
2022-10-26T23:03:34.953Z,73.39
2022-10-26T23:06:02.121Z,73.47
2022-10-26T23:08:29.113Z,73.49
2022-10-26T23:11:04.044Z,73.43
2022-10-26T23:13:31.192Z,73.31
2022-10-26T23:16:07.523Z,73.19
2022-10-26T23:18:34.848Z,73.15
2022-10-26T23:21:02.095Z,73.13
2022-10-26T23:23:29.001Z,73.01
2022-10-26T23:26:03.033Z,73.03
2022-10-26T23:28:30.094Z,73.08
2022-10-26T23:30:57.058Z,72.89
2022-10-26T23:33:23.939Z,72.83
2022-10-26T23:35:54.001Z,72.78
2022-10-26T23:38:20.976Z,72.82
2022-10-26T23:40:57.972Z,72.81
2022-10-26T23:43:25.487Z,72.97
2022-10-26T23:45:52.724Z,73.09
2022-10-26T23:48:19.944Z,72.93
2022-10-26T23:50:47.550Z,72.83
2022-10-26T23:53:15.208Z,72.76
